sensor_id;sensor_type;location;lat;lon;timestamp;P1;durP1;ratioP1;P2;durP2;ratioP2
5428;SDS011;2737;52.386;9.980;2024-01-30T00:01:23;15.70;;;8.03;;
5428;SDS011;2737;52.386;9.980;2024-01-30T00:03:50;13.60;;;7.97;;
5428;SDS011;2737;52.386;9.980;2024-01-30T00:06:18;13.50;;;8.57;;
5428;SDS011;2737;52.386;9.980;2024-01-30T00:08:45;13.57;;;7.87;;
5428;SDS011;2737;52.386;9.980;2024-01-30T00:11:15;17.43;;;8.00;;
5428;SDS011;2737;52.386;9.980;2024-01-30T00:13:42;15.70;;;8.67;;
5428;SDS011;2737;52.386;9.980;2024-01-30T00:16:19;18.67;;;8.43;;
5428;SDS011;2737;52.386;9.980;2024-01-30T00:18:47;13.13;;;7.83;;
5428;SDS011;2737;52.386;9.980;2024-01-30T00:21:14;14.40;;;8.03;;
5428;SDS011;2737;52.386;9.980;2024-01-30T00:23:40;14.13;;;8.27;;
5428;SDS011;2737;52.386;9.980;2024-01-30T00:26:08;12.50;;;7.40;;
5428;SDS011;2737;52.386;9.980;2024-01-30T00:28:36;18.50;;;8.20;;
5428;SDS011;2737;52.386;9.980;2024-01-30T00:31:03;15.40;;;8.23;;
5428;SDS011;2737;52.386;9.980;2024-01-30T00:33:31;17.60;;;8.50;;
5428;SDS011;2737;52.386;9.980;2024-01-30T00:35:58;14.10;;;7.50;;
5428;SDS011;2737;52.386;9.980;2024-01-30T00:38:25;13.00;;;8.00;;
5428;SDS011;2737;52.386;9.980;2024-01-30T00:40:52;15.90;;;9.00;;
5428;SDS011;2737;52.386;9.980;2024-01-30T00:43:19;14.37;;;7.87;;
5428;SDS011;2737;52.386;9.980;2024-01-30T00:45:47;17.63;;;8.70;;
5428;SDS011;2737;52.386;9.980;2024-01-30T00:48:15;13.20;;;7.40;;
5428;SDS011;2737;52.386;9.980;2024-01-30T00:50:42;13.00;;;7.77;;
5428;SDS011;2737;52.386;9.980;2024-01-30T00:53:09;14.03;;;7.13;;
5428;SDS011;2737;52.386;9.980;2024-01-30T00:55:36;9.50;;;6.40;;
5428;SDS011;2737;52.386;9.980;2024-01-30T00:58:03;17.70;;;7.13;;
5428;SDS011;2737;52.386;9.980;2024-01-30T01:00:31;14.20;;;7.60;;
5428;SDS011;2737;52.386;9.980;2024-01-30T01:03:00;12.43;;;7.10;;
5428;SDS011;2737;52.386;9.980;2024-01-30T01:05:27;12.03;;;7.03;;
5428;SDS011;2737;52.386;9.980;2024-01-30T01:07:54;14.33;;;7.73;;
5428;SDS011;2737;52.386;9.980;2024-01-30T01:10:21;14.10;;;6.53;;
5428;SDS011;2737;52.386;9.980;2024-01-30T01:12:48;12.90;;;7.67;;
5428;SDS011;2737;52.386;9.980;2024-01-30T01:15:15;12.77;;;6.60;;
5428;SDS011;2737;52.386;9.980;2024-01-30T01:17:43;11.53;;;6.53;;
5428;SDS011;2737;52.386;9.980;2024-01-30T01:20:11;15.40;;;7.50;;
5428;SDS011;2737;52.386;9.980;2024-01-30T01:22:38;16.80;;;7.40;;
5428;SDS011;2737;52.386;9.980;2024-01-30T01:25:06;13.67;;;7.07;;
5428;SDS011;2737;52.386;9.980;2024-01-30T01:27:33;13.60;;;7.17;;
5428;SDS011;2737;52.386;9.980;2024-01-30T01:30:05;12.43;;;6.37;;
5428;SDS011;2737;52.386;9.980;2024-01-30T01:32:34;13.67;;;7.57;;
5428;SDS011;2737;52.386;9.980;2024-01-30T01:35:01;12.03;;;7.17;;
5428;SDS011;2737;52.386;9.980;2024-01-30T01:37:32;11.77;;;7.50;;
5428;SDS011;2737;52.386;9.980;2024-01-30T01:39:59;15.43;;;6.93;;
5428;SDS011;2737;52.386;9.980;2024-01-30T01:42:26;11.77;;;7.10;;
5428;SDS011;2737;52.386;9.980;2024-01-30T01:44:53;13.83;;;7.63;;
5428;SDS011;2737;52.386;9.980;2024-01-30T01:47:20;12.40;;;7.60;;
5428;SDS011;2737;52.386;9.980;2024-01-30T01:49:48;11.67;;;7.00;;
5428;SDS011;2737;52.386;9.980;2024-01-30T01:52:15;10.07;;;6.63;;
5428;SDS011;2737;52.386;9.980;2024-01-30T01:54:44;13.13;;;7.53;;
5428;SDS011;2737;52.386;9.980;2024-01-30T01:57:11;9.30;;;6.23;;
5428;SDS011;2737;52.386;9.980;2024-01-30T01:59:38;10.23;;;6.50;;
5428;SDS011;2737;52.386;9.980;2024-01-30T02:02:05;10.87;;;6.77;;
5428;SDS011;2737;52.386;9.980;2024-01-30T02:04:37;13.20;;;7.00;;
5428;SDS011;2737;52.386;9.980;2024-01-30T02:07:04;9.53;;;6.60;;
5428;SDS011;2737;52.386;9.980;2024-01-30T02:09:31;17.00;;;6.80;;
5428;SDS011;2737;52.386;9.980;2024-01-30T02:12:00;11.50;;;6.50;;
5428;SDS011;2737;52.386;9.980;2024-01-30T02:14:27;10.90;;;7.00;;
5428;SDS011;2737;52.386;9.980;2024-01-30T02:16:54;13.00;;;6.77;;
5428;SDS011;2737;52.386;9.980;2024-01-30T02:19:21;13.87;;;7.20;;
5428;SDS011;2737;52.386;9.980;2024-01-30T02:21:50;12.80;;;7.23;;
5428;SDS011;2737;52.386;9.980;2024-01-30T02:24:17;19.60;;;8.00;;
5428;SDS011;2737;52.386;9.980;2024-01-30T02:26:44;14.47;;;7.60;;
5428;SDS011;2737;52.386;9.980;2024-01-30T02:29:10;15.53;;;7.17;;
5428;SDS011;2737;52.386;9.980;2024-01-30T02:31:37;11.83;;;6.87;;
5428;SDS011;2737;52.386;9.980;2024-01-30T02:34:04;12.80;;;7.10;;
5428;SDS011;2737;52.386;9.980;2024-01-30T02:36:31;11.57;;;7.20;;
5428;SDS011;2737;52.386;9.980;2024-01-30T02:38:59;13.80;;;8.00;;
5428;SDS011;2737;52.386;9.980;2024-01-30T02:41:26;14.97;;;6.80;;
5428;SDS011;2737;52.386;9.980;2024-01-30T02:43:53;10.10;;;6.73;;
5428;SDS011;2737;52.386;9.980;2024-01-30T02:46:20;14.00;;;7.53;;
5428;SDS011;2737;52.386;9.980;2024-01-30T02:48:48;14.17;;;6.87;;
5428;SDS011;2737;52.386;9.980;2024-01-30T02:51:15;13.33;;;7.97;;
5428;SDS011;2737;52.386;9.980;2024-01-30T02:53:42;10.90;;;6.60;;
5428;SDS011;2737;52.386;9.980;2024-01-30T02:56:10;14.13;;;6.77;;
5428;SDS011;2737;52.386;9.980;2024-01-30T02:58:38;13.20;;;7.70;;
5428;SDS011;2737;52.386;9.980;2024-01-30T03:01:06;20.87;;;8.07;;
5428;SDS011;2737;52.386;9.980;2024-01-30T03:03:33;12.73;;;6.87;;
5428;SDS011;2737;52.386;9.980;2024-01-30T03:06:01;13.73;;;8.30;;
5428;SDS011;2737;52.386;9.980;2024-01-30T03:08:28;12.73;;;7.73;;
5428;SDS011;2737;52.386;9.980;2024-01-30T03:10:55;11.10;;;6.50;;
5428;SDS011;2737;52.386;9.980;2024-01-30T03:13:23;11.50;;;7.63;;
5428;SDS011;2737;52.386;9.980;2024-01-30T03:15:50;12.90;;;7.00;;
5428;SDS011;2737;52.386;9.980;2024-01-30T03:18:17;11.13;;;7.50;;
5428;SDS011;2737;52.386;9.980;2024-01-30T03:20:44;15.47;;;7.10;;
5428;SDS011;2737;52.386;9.980;2024-01-30T03:23:11;12.90;;;7.30;;
5428;SDS011;2737;52.386;9.980;2024-01-30T03:25:38;17.43;;;7.10;;
5428;SDS011;2737;52.386;9.980;2024-01-30T03:28:06;12.57;;;7.60;;
5428;SDS011;2737;52.386;9.980;2024-01-30T03:30:35;14.33;;;7.90;;
5428;SDS011;2737;52.386;9.980;2024-01-30T03:33:02;15.33;;;7.77;;
5428;SDS011;2737;52.386;9.980;2024-01-30T03:35:29;11.47;;;7.83;;
5428;SDS011;2737;52.386;9.980;2024-01-30T03:37:56;15.97;;;8.30;;
5428;SDS011;2737;52.386;9.980;2024-01-30T03:40:23;14.33;;;7.97;;
5428;SDS011;2737;52.386;9.980;2024-01-30T03:42:50;13.13;;;7.40;;
5428;SDS011;2737;52.386;9.980;2024-01-30T03:45:17;17.10;;;7.40;;
5428;SDS011;2737;52.386;9.980;2024-01-30T03:47:46;19.07;;;7.50;;
5428;SDS011;2737;52.386;9.980;2024-01-30T03:50:14;14.40;;;8.30;;
5428;SDS011;2737;52.386;9.980;2024-01-30T03:52:41;11.60;;;7.50;;
5428;SDS011;2737;52.386;9.980;2024-01-30T03:55:08;13.83;;;7.30;;
5428;SDS011;2737;52.386;9.980;2024-01-30T03:57:35;17.03;;;7.73;;
5428;SDS011;2737;52.386;9.980;2024-01-30T04:00:02;13.80;;;8.00;;
5428;SDS011;2737;52.386;9.980;2024-01-30T04:02:31;15.23;;;8.03;;
5428;SDS011;2737;52.386;9.980;2024-01-30T04:04:59;14.27;;;8.10;;
5428;SDS011;2737;52.386;9.980;2024-01-30T04:07:26;16.10;;;8.60;;
5428;SDS011;2737;52.386;9.980;2024-01-30T04:09:54;14.40;;;8.27;;
5428;SDS011;2737;52.386;9.980;2024-01-30T04:12:21;13.30;;;7.30;;
5428;SDS011;2737;52.386;9.980;2024-01-30T04:14:48;13.50;;;7.83;;
5428;SDS011;2737;52.386;9.980;2024-01-30T04:17:15;18.03;;;8.50;;
5428;SDS011;2737;52.386;9.980;2024-01-30T04:19:42;17.37;;;8.47;;
5428;SDS011;2737;52.386;9.980;2024-01-30T04:22:10;11.97;;;8.07;;
5428;SDS011;2737;52.386;9.980;2024-01-30T04:24:37;12.80;;;7.37;;
5428;SDS011;2737;52.386;9.980;2024-01-30T04:27:04;15.90;;;7.20;;
5428;SDS011;2737;52.386;9.980;2024-01-30T04:29:31;13.20;;;7.00;;
5428;SDS011;2737;52.386;9.980;2024-01-30T04:31:59;13.37;;;7.63;;
5428;SDS011;2737;52.386;9.980;2024-01-30T04:34:26;13.00;;;7.80;;
5428;SDS011;2737;52.386;9.980;2024-01-30T04:36:53;14.00;;;7.80;;
5428;SDS011;2737;52.386;9.980;2024-01-30T04:39:21;15.30;;;8.27;;
5428;SDS011;2737;52.386;9.980;2024-01-30T04:41:48;16.63;;;7.80;;
5428;SDS011;2737;52.386;9.980;2024-01-30T04:44:15;16.97;;;7.13;;
5428;SDS011;2737;52.386;9.980;2024-01-30T04:46:42;9.90;;;6.70;;
5428;SDS011;2737;52.386;9.980;2024-01-30T04:49:09;12.67;;;7.23;;
5428;SDS011;2737;52.386;9.980;2024-01-30T04:51:36;13.00;;;7.70;;
5428;SDS011;2737;52.386;9.980;2024-01-30T04:54:03;11.70;;;6.67;;
5428;SDS011;2737;52.386;9.980;2024-01-30T04:56:32;14.20;;;8.07;;
5428;SDS011;2737;52.386;9.980;2024-01-30T04:58:59;14.70;;;6.50;;
5428;SDS011;2737;52.386;9.980;2024-01-30T05:01:26;14.37;;;7.50;;
5428;SDS011;2737;52.386;9.980;2024-01-30T05:03:53;11.80;;;6.93;;
5428;SDS011;2737;52.386;9.980;2024-01-30T05:06:26;18.00;;;7.50;;
5428;SDS011;2737;52.386;9.980;2024-01-30T05:08:53;13.70;;;7.07;;
5428;SDS011;2737;52.386;9.980;2024-01-30T05:11:20;8.80;;;5.80;;
5428;SDS011;2737;52.386;9.980;2024-01-30T05:13:49;10.97;;;6.70;;
5428;SDS011;2737;52.386;9.980;2024-01-30T05:16:16;13.40;;;6.17;;
5428;SDS011;2737;52.386;9.980;2024-01-30T05:18:43;9.73;;;5.80;;
5428;SDS011;2737;52.386;9.980;2024-01-30T05:21:10;13.00;;;7.47;;
5428;SDS011;2737;52.386;9.980;2024-01-30T05:23:37;10.53;;;6.60;;
5428;SDS011;2737;52.386;9.980;2024-01-30T05:26:04;15.47;;;7.57;;
5428;SDS011;2737;52.386;9.980;2024-01-30T05:28:31;14.67;;;7.27;;
5428;SDS011;2737;52.386;9.980;2024-01-30T05:31:00;9.80;;;6.33;;
5428;SDS011;2737;52.386;9.980;2024-01-30T05:33:27;16.20;;;7.33;;
5428;SDS011;2737;52.386;9.980;2024-01-30T05:35:54;12.30;;;6.70;;
5428;SDS011;2737;52.386;9.980;2024-01-30T05:38:21;10.03;;;6.40;;
5428;SDS011;2737;52.386;9.980;2024-01-30T05:40:48;10.30;;;6.57;;
5428;SDS011;2737;52.386;9.980;2024-01-30T05:43:15;11.57;;;6.47;;
5428;SDS011;2737;52.386;9.980;2024-01-30T05:45:42;14.07;;;7.67;;
5428;SDS011;2737;52.386;9.980;2024-01-30T05:48:11;15.33;;;7.77;;
5428;SDS011;2737;52.386;9.980;2024-01-30T05:50:38;15.70;;;7.53;;
5428;SDS011;2737;52.386;9.980;2024-01-30T05:53:04;14.43;;;6.87;;
5428;SDS011;2737;52.386;9.980;2024-01-30T05:55:31;12.70;;;7.90;;
5428;SDS011;2737;52.386;9.980;2024-01-30T05:57:58;11.90;;;6.70;;
5428;SDS011;2737;52.386;9.980;2024-01-30T06:00:25;13.20;;;7.60;;
5428;SDS011;2737;52.386;9.980;2024-01-30T06:02:53;13.93;;;7.03;;
5428;SDS011;2737;52.386;9.980;2024-01-30T06:05:21;18.17;;;6.97;;
5428;SDS011;2737;52.386;9.980;2024-01-30T06:07:48;12.40;;;7.50;;
5428;SDS011;2737;52.386;9.980;2024-01-30T06:10:15;15.50;;;7.57;;
5428;SDS011;2737;52.386;9.980;2024-01-30T06:12:42;12.93;;;7.70;;
5428;SDS011;2737;52.386;9.980;2024-01-30T06:15:09;12.60;;;6.50;;
5428;SDS011;2737;52.386;9.980;2024-01-30T06:17:37;11.33;;;7.17;;
5428;SDS011;2737;52.386;9.980;2024-01-30T06:20:06;13.07;;;7.00;;
5428;SDS011;2737;52.386;9.980;2024-01-30T06:22:34;14.93;;;7.50;;
5428;SDS011;2737;52.386;9.980;2024-01-30T06:25:01;11.80;;;6.97;;
5428;SDS011;2737;52.386;9.980;2024-01-30T06:27:29;12.40;;;7.60;;
5428;SDS011;2737;52.386;9.980;2024-01-30T06:29:56;12.73;;;6.90;;
5428;SDS011;2737;52.386;9.980;2024-01-30T06:32:23;15.93;;;7.60;;
5428;SDS011;2737;52.386;9.980;2024-01-30T06:34:50;14.50;;;7.63;;
5428;SDS011;2737;52.386;9.980;2024-01-30T06:37:17;13.63;;;6.60;;
5428;SDS011;2737;52.386;9.980;2024-01-30T06:39:45;13.37;;;7.40;;
5428;SDS011;2737;52.386;9.980;2024-01-30T06:42:12;15.17;;;7.20;;
5428;SDS011;2737;52.386;9.980;2024-01-30T06:44:39;13.80;;;7.70;;
5428;SDS011;2737;52.386;9.980;2024-01-30T06:47:06;20.00;;;8.30;;
5428;SDS011;2737;52.386;9.980;2024-01-30T06:49:32;12.90;;;7.43;;
5428;SDS011;2737;52.386;9.980;2024-01-30T06:51:59;12.40;;;6.97;;
5428;SDS011;2737;52.386;9.980;2024-01-30T06:54:26;11.23;;;7.17;;
5428;SDS011;2737;52.386;9.980;2024-01-30T06:56:55;13.83;;;7.23;;
5428;SDS011;2737;52.386;9.980;2024-01-30T06:59:22;11.63;;;7.30;;
5428;SDS011;2737;52.386;9.980;2024-01-30T07:01:49;10.70;;;6.50;;
5428;SDS011;2737;52.386;9.980;2024-01-30T07:04:16;11.37;;;7.60;;
5428;SDS011;2737;52.386;9.980;2024-01-30T07:06:43;14.50;;;7.03;;
5428;SDS011;2737;52.386;9.980;2024-01-30T07:09:10;9.83;;;6.60;;
5428;SDS011;2737;52.386;9.980;2024-01-30T07:11:38;14.17;;;6.73;;
5428;SDS011;2737;52.386;9.980;2024-01-30T07:14:07;13.27;;;8.17;;
5428;SDS011;2737;52.386;9.980;2024-01-30T07:16:35;14.93;;;7.30;;
5428;SDS011;2737;52.386;9.980;2024-01-30T07:19:02;12.30;;;7.30;;
5428;SDS011;2737;52.386;9.980;2024-01-30T07:21:29;13.97;;;7.73;;
5428;SDS011;2737;52.386;9.980;2024-01-30T07:23:56;13.13;;;7.30;;
5428;SDS011;2737;52.386;9.980;2024-01-30T07:26:23;19.27;;;7.70;;
5428;SDS011;2737;52.386;9.980;2024-01-30T07:28:50;14.63;;;7.30;;
5428;SDS011;2737;52.386;9.980;2024-01-30T07:31:19;14.07;;;7.10;;
5428;SDS011;2737;52.386;9.980;2024-01-30T07:33:48;13.43;;;7.80;;
5428;SDS011;2737;52.386;9.980;2024-01-30T07:36:15;12.83;;;6.87;;
5428;SDS011;2737;52.386;9.980;2024-01-30T07:38:42;15.73;;;7.07;;
5428;SDS011;2737;52.386;9.980;2024-01-30T07:41:09;13.40;;;6.67;;
5428;SDS011;2737;52.386;9.980;2024-01-30T07:43:37;11.73;;;6.83;;
5428;SDS011;2737;52.386;9.980;2024-01-30T07:46:04;16.63;;;8.17;;
5428;SDS011;2737;52.386;9.980;2024-01-30T07:48:36;10.40;;;7.50;;
5428;SDS011;2737;52.386;9.980;2024-01-30T07:51:03;14.30;;;7.40;;
5428;SDS011;2737;52.386;9.980;2024-01-30T07:53:30;16.20;;;7.70;;
5428;SDS011;2737;52.386;9.980;2024-01-30T07:55:57;19.00;;;8.20;;
5428;SDS011;2737;52.386;9.980;2024-01-30T07:58:24;15.97;;;7.67;;
5428;SDS011;2737;52.386;9.980;2024-01-30T08:00:52;12.67;;;7.77;;
5428;SDS011;2737;52.386;9.980;2024-01-30T08:03:19;13.17;;;7.70;;
5428;SDS011;2737;52.386;9.980;2024-01-30T08:05:47;14.13;;;7.40;;
5428;SDS011;2737;52.386;9.980;2024-01-30T08:08:14;19.27;;;7.03;;
5428;SDS011;2737;52.386;9.980;2024-01-30T08:10:41;15.90;;;7.20;;
5428;SDS011;2737;52.386;9.980;2024-01-30T08:13:08;13.13;;;7.47;;
5428;SDS011;2737;52.386;9.980;2024-01-30T08:15:35;11.93;;;7.07;;
5428;SDS011;2737;52.386;9.980;2024-01-30T08:18:03;14.03;;;7.30;;
5428;SDS011;2737;52.386;9.980;2024-01-30T08:20:32;15.20;;;8.60;;
5428;SDS011;2737;52.386;9.980;2024-01-30T08:23:00;13.50;;;6.80;;
5428;SDS011;2737;52.386;9.980;2024-01-30T08:25:27;12.33;;;6.90;;
5428;SDS011;2737;52.386;9.980;2024-01-30T08:27:55;11.43;;;7.03;;
5428;SDS011;2737;52.386;9.980;2024-01-30T08:30:22;16.83;;;7.73;;
5428;SDS011;2737;52.386;9.980;2024-01-30T08:32:49;15.80;;;7.20;;
5428;SDS011;2737;52.386;9.980;2024-01-30T08:35:16;12.10;;;7.43;;
5428;SDS011;2737;52.386;9.980;2024-01-30T08:37:43;11.50;;;6.67;;
5428;SDS011;2737;52.386;9.980;2024-01-30T08:40:12;13.07;;;6.97;;
5428;SDS011;2737;52.386;9.980;2024-01-30T08:42:39;13.10;;;7.07;;
5428;SDS011;2737;52.386;9.980;2024-01-30T08:45:06;13.37;;;7.47;;
5428;SDS011;2737;52.386;9.980;2024-01-30T08:47:34;12.20;;;7.40;;
5428;SDS011;2737;52.386;9.980;2024-01-30T08:50:01;13.07;;;7.27;;
5428;SDS011;2737;52.386;9.980;2024-01-30T08:52:29;13.80;;;8.47;;
5428;SDS011;2737;52.386;9.980;2024-01-30T08:54:56;13.60;;;7.03;;
5428;SDS011;2737;52.386;9.980;2024-01-30T08:57:24;21.20;;;8.33;;
5428;SDS011;2737;52.386;9.980;2024-01-30T08:59:53;15.70;;;7.70;;
5428;SDS011;2737;52.386;9.980;2024-01-30T09:02:20;12.57;;;7.47;;
5428;SDS011;2737;52.386;9.980;2024-01-30T09:04:47;11.37;;;6.63;;
5428;SDS011;2737;52.386;9.980;2024-01-30T09:07:14;11.97;;;6.43;;
5428;SDS011;2737;52.386;9.980;2024-01-30T09:09:41;13.50;;;6.80;;
5428;SDS011;2737;52.386;9.980;2024-01-30T09:12:08;13.97;;;6.87;;
5428;SDS011;2737;52.386;9.980;2024-01-30T09:14:38;13.67;;;7.57;;
5428;SDS011;2737;52.386;9.980;2024-01-30T09:17:06;11.87;;;7.10;;
5428;SDS011;2737;52.386;9.980;2024-01-30T09:19:33;11.73;;;6.50;;
5428;SDS011;2737;52.386;9.980;2024-01-30T09:22:00;16.83;;;7.37;;
5428;SDS011;2737;52.386;9.980;2024-01-30T09:24:28;7.93;;;5.63;;
5428;SDS011;2737;52.386;9.980;2024-01-30T09:26:55;12.90;;;7.03;;
5428;SDS011;2737;52.386;9.980;2024-01-30T09:29:22;15.47;;;7.40;;
5428;SDS011;2737;52.386;9.980;2024-01-30T09:31:50;13.80;;;8.20;;
5428;SDS011;2737;52.386;9.980;2024-01-30T09:34:17;13.60;;;7.63;;
5428;SDS011;2737;52.386;9.980;2024-01-30T09:36:44;13.20;;;7.07;;
5428;SDS011;2737;52.386;9.980;2024-01-30T09:39:11;13.40;;;6.77;;
5428;SDS011;2737;52.386;9.980;2024-01-30T09:41:40;9.80;;;6.60;;
5428;SDS011;2737;52.386;9.980;2024-01-30T09:44:12;20.10;;;7.97;;
5428;SDS011;2737;52.386;9.980;2024-01-30T09:46:42;15.10;;;7.03;;
5428;SDS011;2737;52.386;9.980;2024-01-30T09:49:12;12.20;;;6.30;;
5428;SDS011;2737;52.386;9.980;2024-01-30T09:51:40;10.30;;;7.03;;
5428;SDS011;2737;52.386;9.980;2024-01-30T09:54:07;11.00;;;6.73;;
5428;SDS011;2737;52.386;9.980;2024-01-30T09:56:36;18.20;;;6.57;;
5428;SDS011;2737;52.386;9.980;2024-01-30T09:59:03;11.40;;;7.13;;
5428;SDS011;2737;52.386;9.980;2024-01-30T10:01:30;11.20;;;6.50;;
5428;SDS011;2737;52.386;9.980;2024-01-30T10:03:57;11.50;;;6.50;;
5428;SDS011;2737;52.386;9.980;2024-01-30T10:06:26;11.73;;;6.30;;
5428;SDS011;2737;52.386;9.980;2024-01-30T10:08:54;15.10;;;7.10;;
5428;SDS011;2737;52.386;9.980;2024-01-30T10:11:21;12.80;;;7.07;;
5428;SDS011;2737;52.386;9.980;2024-01-30T10:13:48;13.80;;;7.40;;
5428;SDS011;2737;52.386;9.980;2024-01-30T10:16:15;9.37;;;6.07;;
5428;SDS011;2737;52.386;9.980;2024-01-30T10:18:43;11.53;;;6.20;;
5428;SDS011;2737;52.386;9.980;2024-01-30T10:21:10;10.53;;;6.73;;
5428;SDS011;2737;52.386;9.980;2024-01-30T10:23:39;9.30;;;6.47;;
5428;SDS011;2737;52.386;9.980;2024-01-30T10:26:07;10.17;;;5.90;;
5428;SDS011;2737;52.386;9.980;2024-01-30T10:28:34;11.70;;;6.27;;
5428;SDS011;2737;52.386;9.980;2024-01-30T10:31:01;11.60;;;6.70;;
5428;SDS011;2737;52.386;9.980;2024-01-30T10:33:29;12.33;;;6.87;;
5428;SDS011;2737;52.386;9.980;2024-01-30T10:35:57;14.90;;;6.90;;
5428;SDS011;2737;52.386;9.980;2024-01-30T10:38:27;15.33;;;10.00;;
5428;SDS011;2737;52.386;9.980;2024-01-30T10:40:58;22.23;;;11.67;;
5428;SDS011;2737;52.386;9.980;2024-01-30T10:43:28;22.53;;;13.50;;
5428;SDS011;2737;52.386;9.980;2024-01-30T10:46:00;28.67;;;14.93;;
5428;SDS011;2737;52.386;9.980;2024-01-30T10:48:36;39.80;;;17.50;;
5428;SDS011;2737;52.386;9.980;2024-01-30T10:51:09;26.60;;;13.10;;
5428;SDS011;2737;52.386;9.980;2024-01-30T10:53:38;15.57;;;8.40;;
5428;SDS011;2737;52.386;9.980;2024-01-30T10:56:07;24.23;;;13.50;;
5428;SDS011;2737;52.386;9.980;2024-01-30T10:58:36;18.47;;;8.67;;
5428;SDS011;2737;52.386;9.980;2024-01-30T11:01:04;24.37;;;8.60;;
5428;SDS011;2737;52.386;9.980;2024-01-30T11:03:33;15.57;;;7.33;;
5428;SDS011;2737;52.386;9.980;2024-01-30T11:06:01;20.13;;;12.00;;
5428;SDS011;2737;52.386;9.980;2024-01-30T11:08:31;16.53;;;9.87;;
5428;SDS011;2737;52.386;9.980;2024-01-30T11:10:59;17.13;;;7.90;;
5428;SDS011;2737;52.386;9.980;2024-01-30T11:13:30;16.00;;;8.00;;
5428;SDS011;2737;52.386;9.980;2024-01-30T11:16:00;17.63;;;9.60;;
5428;SDS011;2737;52.386;9.980;2024-01-30T11:18:28;14.60;;;8.90;;
5428;SDS011;2737;52.386;9.980;2024-01-30T11:20:56;14.40;;;7.60;;
5428;SDS011;2737;52.386;9.980;2024-01-30T11:23:26;12.00;;;7.20;;
5428;SDS011;2737;52.386;9.980;2024-01-30T11:25:53;12.30;;;7.40;;
5428;SDS011;2737;52.386;9.980;2024-01-30T11:28:21;19.23;;;10.23;;
5428;SDS011;2737;52.386;9.980;2024-01-30T11:30:50;12.20;;;8.57;;
5428;SDS011;2737;52.386;9.980;2024-01-30T11:33:26;17.27;;;10.50;;
5428;SDS011;2737;52.386;9.980;2024-01-30T11:35:56;12.87;;;7.30;;
5428;SDS011;2737;52.386;9.980;2024-01-30T11:38:25;10.70;;;6.50;;
5428;SDS011;2737;52.386;9.980;2024-01-30T11:40:53;12.10;;;6.33;;
5428;SDS011;2737;52.386;9.980;2024-01-30T11:43:21;10.40;;;6.53;;
5428;SDS011;2737;52.386;9.980;2024-01-30T11:45:50;11.80;;;6.60;;
5428;SDS011;2737;52.386;9.980;2024-01-30T11:48:18;10.70;;;6.63;;
5428;SDS011;2737;52.386;9.980;2024-01-30T11:50:45;11.50;;;7.20;;
5428;SDS011;2737;52.386;9.980;2024-01-30T11:53:13;9.53;;;6.70;;
5428;SDS011;2737;52.386;9.980;2024-01-30T11:55:40;13.50;;;6.50;;
5428;SDS011;2737;52.386;9.980;2024-01-30T11:58:08;12.90;;;6.90;;
5428;SDS011;2737;52.386;9.980;2024-01-30T12:00:35;11.40;;;6.23;;
5428;SDS011;2737;52.386;9.980;2024-01-30T12:03:03;12.13;;;7.13;;
5428;SDS011;2737;52.386;9.980;2024-01-30T12:05:32;10.97;;;6.00;;
5428;SDS011;2737;52.386;9.980;2024-01-30T12:07:59;11.63;;;6.30;;
5428;SDS011;2737;52.386;9.980;2024-01-30T12:10:26;16.03;;;6.10;;
5428;SDS011;2737;52.386;9.980;2024-01-30T12:12:53;11.13;;;6.90;;
5428;SDS011;2737;52.386;9.980;2024-01-30T12:15:21;17.33;;;6.50;;
5428;SDS011;2737;52.386;9.980;2024-01-30T12:17:48;13.57;;;6.47;;
5428;SDS011;2737;52.386;9.980;2024-01-30T12:20:18;16.63;;;7.50;;
5428;SDS011;2737;52.386;9.980;2024-01-30T12:22:47;13.83;;;7.50;;
5428;SDS011;2737;52.386;9.980;2024-01-30T12:25:14;10.53;;;6.50;;
5428;SDS011;2737;52.386;9.980;2024-01-30T12:27:42;13.13;;;6.77;;
5428;SDS011;2737;52.386;9.980;2024-01-30T12:30:11;10.33;;;5.73;;
5428;SDS011;2737;52.386;9.980;2024-01-30T12:32:40;16.03;;;6.37;;
5428;SDS011;2737;52.386;9.980;2024-01-30T12:35:08;8.20;;;6.00;;
5428;SDS011;2737;52.386;9.980;2024-01-30T12:37:37;11.00;;;5.67;;
5428;SDS011;2737;52.386;9.980;2024-01-30T12:40:05;9.57;;;5.60;;
5428;SDS011;2737;52.386;9.980;2024-01-30T12:42:34;12.43;;;5.57;;
5428;SDS011;2737;52.386;9.980;2024-01-30T12:45:02;10.57;;;5.70;;
5428;SDS011;2737;52.386;9.980;2024-01-30T12:47:29;9.73;;;6.00;;
5428;SDS011;2737;52.386;9.980;2024-01-30T12:49:56;10.33;;;6.20;;
5428;SDS011;2737;52.386;9.980;2024-01-30T12:52:23;9.20;;;6.37;;
5428;SDS011;2737;52.386;9.980;2024-01-30T12:54:52;9.00;;;5.83;;
5428;SDS011;2737;52.386;9.980;2024-01-30T12:57:19;10.50;;;6.17;;
5428;SDS011;2737;52.386;9.980;2024-01-30T12:59:46;9.97;;;5.60;;
5428;SDS011;2737;52.386;9.980;2024-01-30T13:02:14;11.77;;;5.80;;
5428;SDS011;2737;52.386;9.980;2024-01-30T13:04:42;14.03;;;6.00;;
5428;SDS011;2737;52.386;9.980;2024-01-30T13:07:10;10.73;;;5.93;;
5428;SDS011;2737;52.386;9.980;2024-01-30T13:09:37;12.80;;;5.73;;
5428;SDS011;2737;52.386;9.980;2024-01-30T13:12:06;8.73;;;5.60;;
5428;SDS011;2737;52.386;9.980;2024-01-30T13:14:34;14.53;;;7.37;;
5428;SDS011;2737;52.386;9.980;2024-01-30T13:17:01;11.33;;;5.90;;
5428;SDS011;2737;52.386;9.980;2024-01-30T13:19:28;9.83;;;6.10;;
5428;SDS011;2737;52.386;9.980;2024-01-30T13:21:55;12.63;;;6.00;;
5428;SDS011;2737;52.386;9.980;2024-01-30T13:24:22;11.40;;;5.83;;
5428;SDS011;2737;52.386;9.980;2024-01-30T13:26:50;10.57;;;6.70;;
5428;SDS011;2737;52.386;9.980;2024-01-30T13:29:18;10.83;;;6.27;;
5428;SDS011;2737;52.386;9.980;2024-01-30T13:31:45;8.60;;;5.97;;
5428;SDS011;2737;52.386;9.980;2024-01-30T13:34:12;11.60;;;6.37;;
5428;SDS011;2737;52.386;9.980;2024-01-30T13:36:40;13.20;;;6.40;;
5428;SDS011;2737;52.386;9.980;2024-01-30T13:39:07;8.57;;;6.00;;
5428;SDS011;2737;52.386;9.980;2024-01-30T13:41:36;10.90;;;5.70;;
5428;SDS011;2737;52.386;9.980;2024-01-30T13:44:03;11.43;;;6.47;;
5428;SDS011;2737;52.386;9.980;2024-01-30T13:46:32;8.40;;;5.80;;
5428;SDS011;2737;52.386;9.980;2024-01-30T13:48:59;9.50;;;5.63;;
5428;SDS011;2737;52.386;9.980;2024-01-30T13:51:25;11.50;;;6.50;;
5428;SDS011;2737;52.386;9.980;2024-01-30T13:53:52;10.23;;;6.20;;
5428;SDS011;2737;52.386;9.980;2024-01-30T13:56:19;11.60;;;5.73;;
5428;SDS011;2737;52.386;9.980;2024-01-30T13:58:47;11.70;;;5.40;;
5428;SDS011;2737;52.386;9.980;2024-01-30T14:01:14;11.73;;;6.27;;
5428;SDS011;2737;52.386;9.980;2024-01-30T14:03:43;10.73;;;6.20;;
5428;SDS011;2737;52.386;9.980;2024-01-30T14:06:10;9.13;;;5.50;;
5428;SDS011;2737;52.386;9.980;2024-01-30T14:08:38;9.00;;;5.83;;
5428;SDS011;2737;52.386;9.980;2024-01-30T14:11:05;9.50;;;6.60;;
5428;SDS011;2737;52.386;9.980;2024-01-30T14:13:32;13.40;;;7.50;;
5428;SDS011;2737;52.386;9.980;2024-01-30T14:15:59;12.90;;;7.33;;
5428;SDS011;2737;52.386;9.980;2024-01-30T14:18:26;13.00;;;7.77;;
5428;SDS011;2737;52.386;9.980;2024-01-30T14:20:55;17.20;;;10.03;;
5428;SDS011;2737;52.386;9.980;2024-01-30T14:23:22;12.00;;;7.30;;
5428;SDS011;2737;52.386;9.980;2024-01-30T14:25:50;13.90;;;7.17;;
5428;SDS011;2737;52.386;9.980;2024-01-30T14:28:17;15.40;;;8.80;;
5428;SDS011;2737;52.386;9.980;2024-01-30T14:30:44;18.27;;;9.10;;
5428;SDS011;2737;52.386;9.980;2024-01-30T14:33:12;12.57;;;7.87;;
5428;SDS011;2737;52.386;9.980;2024-01-30T14:35:39;16.93;;;10.33;;
5428;SDS011;2737;52.386;9.980;2024-01-30T14:38:07;16.70;;;8.20;;
5428;SDS011;2737;52.386;9.980;2024-01-30T14:40:35;15.67;;;9.60;;
5428;SDS011;2737;52.386;9.980;2024-01-30T14:43:02;14.17;;;7.87;;
5428;SDS011;2737;52.386;9.980;2024-01-30T14:45:29;15.37;;;6.93;;
5428;SDS011;2737;52.386;9.980;2024-01-30T14:47:57;11.17;;;7.30;;
5428;SDS011;2737;52.386;9.980;2024-01-30T14:50:24;14.47;;;8.33;;
5428;SDS011;2737;52.386;9.980;2024-01-30T14:52:52;13.30;;;7.70;;
5428;SDS011;2737;52.386;9.980;2024-01-30T14:55:20;13.60;;;7.90;;
5428;SDS011;2737;52.386;9.980;2024-01-30T14:57:47;10.23;;;6.87;;
5428;SDS011;2737;52.386;9.980;2024-01-30T15:00:15;16.03;;;8.10;;
5428;SDS011;2737;52.386;9.980;2024-01-30T15:02:43;17.10;;;6.80;;
5428;SDS011;2737;52.386;9.980;2024-01-30T15:05:11;12.20;;;7.20;;